Time;durP1;ratioP1;P1;durP2;ratioP2;P2;SDS_P1;SDS_P2;PMS_P1;PMS_P2;Temp;Humidity;BMP_temperature;BMP_pressure;BME280_temperature;BME280_humidity;BME280_pressure;Samples;Min_cycle;Max_cycle;Signal;HPM_P1;HPM_P2
2021/08/20 00:00:01;;;;;;;9.77;6.53;;;;;;;19.82;57.91;98505.34;5091370;28;20034;-69
2021/08/20 00:02:28;;;;;;;9.45;6.85;;;;;;;19.81;57.86;98504.53;5088214;28;20032;-69
2021/08/20 00:04:54;;;;;;;9.60;7.00;;;;;;;19.81;57.86;98506.53;5091839;28;20032;-68
2021/08/20 00:07:20;;;;;;;9.50;6.57;;;;;;;19.81;57.91;98507.31;5089524;28;20023;-68
2021/08/20 00:09:45;;;;;;;9.82;6.28;;;;;;;19.81;57.92;98506.53;5092416;28;20439;-68
2021/08/20 00:12:11;;;;;;;11.85;6.57;;;;;;;19.81;57.55;98496.19;5090157;28;20035;-67
2021/08/20 00:14:37;;;;;;;8.98;6.47;;;;;;;19.77;57.60;98500.84;5093871;28;20059;-67
2021/08/20 00:17:04;;;;;;;9.43;6.63;;;;;;;19.71;57.78;98493.94;5091324;28;20062;-68
2021/08/20 00:19:30;;;;;;;8.38;5.57;;;;;;;19.68;57.79;98491.88;5093095;28;20733;-67
2021/08/20 00:21:56;;;;;;;12.13;6.18;;;;;;;19.71;58.03;98491.16;5091465;28;20029;-68
2021/08/20 00:24:21;;;;;;;8.38;5.95;;;;;;;19.71;57.97;98493.94;5093774;28;20085;-68
2021/08/20 00:26:47;;;;;;;9.05;5.60;;;;;;;19.67;58.14;98493.03;5094533;28;20698;-68
2021/08/20 00:29:12;;;;;;;8.75;6.05;;;;;;;19.67;58.18;98498.59;5093458;28;20111;-68
2021/08/20 00:31:38;;;;;;;8.73;6.13;;;;;;;19.67;58.21;98491.06;5092058;28;20042;-67
2021/08/20 00:34:04;;;;;;;8.73;5.80;;;;;;;19.67;58.38;98499.41;5091232;28;20146;-69
2021/08/20 00:36:29;;;;;;;9.77;6.45;;;;;;;19.69;58.24;98497.06;5093857;28;20079;-69
2021/08/20 00:38:55;;;;;;;9.88;6.22;;;;;;;19.68;58.22;98498.25;5094690;28;20016;-69
2021/08/20 00:41:20;;;;;;;8.88;6.28;;;;;;;19.67;58.22;98493.84;5074534;28;20044;-69
2021/08/20 00:43:46;;;;;;;8.05;6.00;;;;;;;19.69;58.53;98499.06;5092700;28;20364;-68
2021/08/20 00:46:12;;;;;;;8.45;6.10;;;;;;;19.59;58.59;98506.75;5092861;28;20027;-68
2021/08/20 00:48:39;;;;;;;8.77;6.10;;;;;;;19.57;58.47;98494.34;5094057;28;20032;-69
2021/08/20 00:51:10;;;;;;;10.27;6.38;;;;;;;19.57;58.76;98495.16;5096036;28;20024;-69
2021/08/20 00:53:36;;;;;;;10.52;6.40;;;;;;;19.58;58.67;98493.19;5089924;28;20050;-69
2021/08/20 00:56:03;;;;;;;10.60;6.07;;;;;;;19.59;58.84;98494.81;5094285;28;20457;-69
2021/08/20 00:58:31;;;;;;;11.07;6.65;;;;;;;19.58;58.95;98498.75;5092100;28;20482;-69
2021/08/20 01:00:56;;;;;;;12.68;7.35;;;;;;;19.59;59.18;98503.97;5090499;28;20024;-69
2021/08/20 01:03:22;;;;;;;12.40;7.20;;;;;;;19.58;58.90;98496.78;5091623;28;20024;-69
2021/08/20 01:05:52;;;;;;;11.82;6.70;;;;;;;19.55;58.80;98503.06;5089297;28;20035;-69
2021/08/20 01:08:18;;;;;;;9.75;6.53;;;;;;;19.48;58.57;98498.13;5092219;28;20475;-69
2021/08/20 01:10:44;;;;;;;9.75;6.32;;;;;;;19.41;58.73;98499.88;5092266;28;20080;-69
2021/08/20 01:13:09;;;;;;;9.68;6.55;;;;;;;19.38;58.64;98495.84;5087074;28;20590;-69
2021/08/20 01:15:34;;;;;;;8.07;6.13;;;;;;;19.38;59.01;98501.41;5091340;28;20569;-69
2021/08/20 01:18:00;;;;;;;9.60;6.03;;;;;;;19.40;58.81;98510.19;5093815;28;20514;-69
2021/08/20 01:20:25;;;;;;;11.90;7.05;;;;;;;19.41;58.78;98494.31;5093166;28;20031;-69
2021/08/20 01:22:51;;;;;;;12.02;6.97;;;;;;;19.39;58.87;98499.41;5094967;28;20464;-69
2021/08/20 01:25:16;;;;;;;10.85;6.93;;;;;;;19.37;58.79;98498.97;5096207;28;20035;-69
2021/08/20 01:27:41;;;;;;;10.82;6.85;;;;;;;19.33;58.77;98504.44;5093001;28;20439;-68
2021/08/20 01:30:08;;;;;;;11.73;6.95;;;;;;;19.31;58.86;98502.03;5092153;28;20044;-69
2021/08/20 01:32:33;;;;;;;10.73;7.00;;;;;;;19.35;59.19;98499.31;5090575;28;20036;-69
2021/08/20 01:34:59;;;;;;;12.13;7.13;;;;;;;19.36;59.00;98495.38;5097136;28;20038;-69
2021/08/20 01:37:24;;;;;;;12.32;7.25;;;;;;;19.39;58.98;98499.41;5098506;28;20433;-69
2021/08/20 01:39:50;;;;;;;13.23;7.63;;;;;;;19.38;59.13;98501.41;5099132;28;20047;-69
2021/08/20 01:42:15;;;;;;;12.55;7.53;;;;;;;19.33;59.18;98496.09;5094639;28;20032;-68
2021/08/20 01:44:41;;;;;;;12.50;7.30;;;;;;;19.28;59.16;98491.59;5097880;28;20040;-69
2021/08/20 01:47:10;;;;;;;12.18;7.47;;;;;;;19.27;59.10;98490.00;5098004;28;20177;-69
2021/08/20 01:49:38;;;;;;;12.50;7.05;;;;;;;19.27;59.34;98478.03;5090075;28;20831;-69
2021/08/20 01:52:04;;;;;;;12.50;7.70;;;;;;;19.27;59.37;98489.16;5095249;28;20020;-69
2021/08/20 01:54:29;;;;;;;14.25;7.90;;;;;;;19.26;59.38;98493.94;5094773;28;20036;-69
2021/08/20 01:56:55;;;;;;;10.82;6.68;;;;;;;19.28;59.49;98490.78;5095483;28;20059;-69
2021/08/20 01:59:20;;;;;;;12.05;7.20;;;;;;;19.27;59.56;98492.78;5098494;28;20050;-69
2021/08/20 02:01:45;;;;;;;12.38;7.47;;;;;;;19.26;59.56;98484.75;5094617;28;20051;-69
2021/08/20 02:04:11;;;;;;;11.93;7.38;;;;;;;19.23;59.63;98486.28;5093742;28;20502;-69
2021/08/20 02:06:36;;;;;;;12.75;7.50;;;;;;;19.18;59.67;98487.34;5098121;28;20029;-69
2021/08/20 02:09:03;;;;;;;14.40;8.25;;;;;;;19.19;59.79;98485.38;5094718;28;20130;-68
2021/08/20 02:11:28;;;;;;;15.60;8.45;;;;;;;19.21;59.72;98482.22;5093811;28;20062;-69
2021/08/20 02:13:54;;;;;;;14.18;7.82;;;;;;;19.14;59.88;98477.28;5096696;28;20075;-68
2021/08/20 02:16:20;;;;;;;14.70;8.55;;;;;;;19.13;59.81;98475.66;5074097;28;20087;-68
2021/08/20 02:18:45;;;;;;;14.40;8.15;;;;;;;19.03;60.25;98472.22;5097177;28;20111;-69
2021/08/20 02:21:11;;;;;;;11.95;7.63;;;;;;;18.98;60.06;98472.47;5097634;28;20032;-68
2021/08/20 02:23:38;;;;;;;13.20;7.40;;;;;;;19.00;60.17;98480.47;5093860;28;20119;-68
2021/08/20 02:26:05;;;;;;;14.30;7.50;;;;;;;19.00;60.38;98464.59;5094643;28;20090;-68
2021/08/20 02:28:30;;;;;;;11.77;7.68;;;;;;;19.01;60.44;98471.75;5097850;28;20070;-68
2021/08/20 02:30:56;;;;;;;13.82;7.72;;;;;;;19.05;60.41;98471.88;5092905;28;20115;-68
2021/08/20 02:33:21;;;;;;;12.85;7.97;;;;;;;19.06;60.41;98467.94;5095477;28;20123;-68
2021/08/20 02:35:47;;;;;;;13.10;8.02;;;;;;;19.03;60.36;98471.44;5095877;28;20028;-68
2021/08/20 02:38:13;;;;;;;12.13;7.82;;;;;;;18.91;60.17;98469.47;5094510;28;20027;-68
2021/08/20 02:40:38;;;;;;;11.13;7.82;;;;;;;18.88;60.61;98470.97;5095052;28;20667;-68
2021/08/20 02:43:03;;;;;;;13.57;8.15;;;;;;;18.80;60.51;98469.13;5094018;28;20040;-68
2021/08/20 02:45:29;;;;;;;11.68;8.05;;;;;;;18.71;61.05;98466.50;5093527;28;20032;-68
2021/08/20 02:47:55;;;;;;;10.23;7.22;;;;;;;18.63;60.90;98467.44;5092263;28;20032;-68
2021/08/20 02:50:20;;;;;;;11.20;7.10;;;;;;;18.62;61.03;98465.03;5094787;28;20020;-69
2021/08/20 02:52:46;;;;;;;12.30;7.75;;;;;;;18.68;61.55;98478.31;5097941;28;20026;-69
2021/08/20 02:55:11;;;;;;;11.10;7.65;;;;;;;18.72;61.27;98467.31;5089997;28;20066;-69
2021/08/20 02:57:37;;;;;;;12.88;7.50;;;;;;;18.74;61.12;98468.56;5095123;28;20399;-69
2021/08/20 03:00:04;;;;;;;10.82;6.90;;;;;;;18.72;61.26;98470.09;5091027;28;20051;-69
2021/08/20 03:02:29;;;;;;;15.88;7.72;;;;;;;18.73;61.29;98468.94;5095394;28;20107;-69
2021/08/20 03:04:55;;;;;;;12.20;6.97;;;;;;;18.71;60.82;98472.06;5097165;28;20605;-69
2021/08/20 03:07:20;;;;;;;12.63;7.40;;;;;;;18.65;61.34;98478.22;5097488;28;20027;-69
2021/08/20 03:09:46;;;;;;;12.80;7.68;;;;;;;18.62;61.46;98482.47;5093656;28;20480;-69
2021/08/20 03:12:11;;;;;;;12.55;7.22;;;;;;;18.63;61.57;98480.53;5094854;28;20143;-69
2021/08/20 03:14:36;;;;;;;11.10;7.80;;;;;;;18.59;61.60;98485.94;5092939;28;20055;-69
2021/08/20 03:17:02;;;;;;;10.77;6.82;;;;;;;18.55;61.75;98482.25;5096804;28;20032;-69
2021/08/20 03:19:28;;;;;;;11.00;6.93;;;;;;;18.55;61.49;98485.84;5090916;28;20129;-69
2021/08/20 03:21:54;;;;;;;12.20;7.18;;;;;;;18.53;61.82;98482.63;5090383;28;20476;-69
2021/08/20 03:24:19;;;;;;;11.13;7.25;;;;;;;18.51;61.80;98482.16;5071599;28;20026;-69
2021/08/20 03:26:44;;;;;;;11.98;6.85;;;;;;;18.49;61.92;98490.03;5091483;28;20039;-69
2021/08/20 03:29:10;;;;;;;11.23;6.80;;;;;;;18.43;61.85;98492.22;5076618;28;20075;-68
2021/08/20 03:31:35;;;;;;;11.20;6.60;;;;;;;18.41;62.18;98493.72;5093527;28;20172;-69
2021/08/20 03:34:01;;;;;;;12.35;7.07;;;;;;;18.41;61.93;98490.94;5093364;28;20096;-69
2021/08/20 03:36:27;;;;;;;11.25;6.88;;;;;;;18.34;62.21;98488.75;5092606;28;20103;-69
2021/08/20 03:38:53;;;;;;;11.57;6.60;;;;;;;18.35;62.40;98495.09;5096218;28;20369;-69
2021/08/20 03:41:20;;;;;;;11.55;6.90;;;;;;;18.35;62.44;98492.34;5075121;28;20092;-68
2021/08/20 03:43:46;;;;;;;10.82;6.63;;;;;;;18.36;62.42;98489.22;5092553;28;20028;-68
2021/08/20 03:46:12;;;;;;;12.07;6.32;;;;;;;18.37;62.37;98485.28;5094451;28;20051;-69
2021/08/20 03:48:38;;;;;;;11.30;6.47;;;;;;;18.40;62.60;98489.31;5088821;28;20039;-69
2021/08/20 03:51:04;;;;;;;10.70;6.78;;;;;;;18.51;62.70;98490.47;5095446;28;20032;-69
2021/08/20 03:53:30;;;;;;;10.70;6.38;;;;;;;18.60;62.62;98493.13;5093438;28;20062;-69
2021/08/20 03:55:56;;;;;;;10.23;6.10;;;;;;;18.70;62.74;98495.44;5073043;28;20027;-68
2021/08/20 03:58:21;;;;;;;9.95;7.03;;;;;;;18.79;62.73;98494.50;5091587;28;20111;-69
2021/08/20 04:00:51;;;;;;;10.35;6.45;;;;;;;18.83;62.48;98493.44;5089991;28;20111;-69
2021/08/20 04:03:21;;;;;;;10.23;6.50;;;;;;;18.90;62.66;98495.63;5072656;28;20142;-69
2021/08/20 04:05:47;;;;;;;10.98;6.68;;;;;;;18.92;62.70;98487.75;5094231;28;20028;-69
2021/08/20 04:08:14;;;;;;;11.25;6.75;;;;;;;18.90;62.29;98493.66;5095211;28;20040;-68
2021/08/20 04:10:41;;;;;;;10.70;6.05;;;;;;;18.77;62.35;98497.63;5090505;28;20120;-68
2021/08/20 04:13:08;;;;;;;9.27;6.78;;;;;;;18.72;62.49;98500.66;5089717;28;20048;-69
2021/08/20 04:15:34;;;;;;;11.48;6.50;;;;;;;18.75;62.59;98503.53;5070852;28;20071;-69
2021/08/20 04:18:00;;;;;;;10.00;6.45;;;;;;;18.80;62.62;98499.69;5094293;28;20044;-69
2021/08/20 04:20:25;;;;;;;12.50;6.22;;;;;;;18.85;62.50;98504.22;5091742;28;20473;-68
2021/08/20 04:22:51;;;;;;;9.05;6.03;;;;;;;18.86;62.65;98501.06;5091507;28;20031;-69
2021/08/20 04:25:16;;;;;;;10.30;6.38;;;;;;;18.86;62.52;98503.06;5093965;28;20058;-69
2021/08/20 04:27:41;;;;;;;10.60;5.95;;;;;;;18.85;62.65;98510.56;5092594;28;20131;-69
2021/08/20 04:30:07;;;;;;;11.82;6.88;;;;;;;18.77;62.47;98503.16;5090990;28;20064;-69
2021/08/20 04:32:33;;;;;;;12.68;6.15;;;;;;;18.74;62.40;98513.03;5089928;28;20118;-69
2021/08/20 04:34:58;;;;;;;8.07;5.55;;;;;;;18.72;62.33;98509.78;5092768;28;20035;-69
2021/08/20 04:37:23;;;;;;;9.35;5.60;;;;;;;18.64;62.38;98501.59;5092868;28;20098;-69
2021/08/20 04:39:50;;;;;;;11.13;6.28;;;;;;;18.54;62.38;98511.22;5088605;28;20048;-69
2021/08/20 04:42:15;;;;;;;16.58;6.30;;;;;;;18.48;62.14;98507.03;5090885;28;20514;-69
2021/08/20 04:44:41;;;;;;;8.95;5.72;;;;;;;18.45;62.51;98505.75;5092953;28;20035;-69
2021/08/20 04:47:06;;;;;;;10.30;5.63;;;;;;;18.41;62.77;98504.84;5093789;28;20051;-68
2021/08/20 04:49:32;;;;;;;10.65;6.22;;;;;;;18.39;62.73;98504.38;5091278;28;20074;-68
2021/08/20 04:51:57;;;;;;;8.75;5.88;;;;;;;18.36;62.91;98505.06;5078434;28;20039;-68
2021/08/20 04:54:23;;;;;;;9.18;6.13;;;;;;;18.37;63.05;98503.91;5096416;28;20028;-68
2021/08/20 04:56:49;;;;;;;9.93;5.78;;;;;;;18.38;63.02;98499.97;5099464;28;20031;-68
2021/08/20 04:59:15;;;;;;;10.07;5.68;;;;;;;18.38;62.83;98500.78;5097666;28;20036;-68
2021/08/20 05:01:40;;;;;;;9.23;6.20;;;;;;;18.39;63.08;98494.09;5097341;28;20771;-69
2021/08/20 05:04:06;;;;;;;8.82;5.80;;;;;;;18.38;63.03;98499.97;5093676;28;20046;-68
2021/08/20 05:06:31;;;;;;;9.95;6.20;;;;;;;18.35;63.00;98500.66;5092839;28;20043;-68
2021/08/20 05:08:57;;;;;;;10.77;6.55;;;;;;;18.41;63.22;98507.59;5095137;28;20050;-68
2021/08/20 05:11:22;;;;;;;12.52;6.30;;;;;;;18.40;63.17;98506.81;5093257;28;20057;-68
2021/08/20 05:13:48;;;;;;;9.27;5.38;;;;;;;18.39;63.26;98510.75;5094549;28;20415;-68
2021/08/20 05:16:13;;;;;;;12.95;5.75;;;;;;;18.40;63.18;98509.59;5095277;28;20110;-68
2021/08/20 05:18:39;;;;;;;9.23;5.85;;;;;;;18.36;63.31;98510.63;5092929;28;20119;-67
2021/08/20 05:21:04;;;;;;;9.18;5.53;;;;;;;18.39;63.24;98505.19;5096648;28;20032;-68
2021/08/20 05:23:30;;;;;;;11.32;5.57;;;;;;;18.47;63.26;98505.44;5074072;28;20114;-68
2021/08/20 05:25:55;;;;;;;8.57;5.13;;;;;;;18.44;63.09;98496.63;5077141;28;20376;-68
2021/08/20 05:28:20;;;;;;;7.25;5.55;;;;;;;18.40;63.29;98497.66;5093318;28;20024;-68
2021/08/20 05:30:46;;;;;;;10.10;5.25;;;;;;;18.36;63.29;98497.56;5093611;28;20502;-68
2021/08/20 05:33:11;;;;;;;9.25;5.13;;;;;;;18.34;63.29;98499.06;5096038;28;20088;-68
2021/08/20 05:35:38;;;;;;;9.35;5.32;;;;;;;18.38;63.28;98499.97;5090884;28;20080;-68
2021/08/20 05:38:04;;;;;;;8.52;5.35;;;;;;;18.38;63.43;98503.56;5096728;28;20142;-68
2021/08/20 05:40:29;;;;;;;10.98;5.07;;;;;;;18.40;63.41;98494.88;5092567;28;20429;-68
2021/08/20 05:42:55;;;;;;;6.97;4.95;;;;;;;18.38;63.38;98505.53;5099193;28;20035;-68
2021/08/20 05:45:20;;;;;;;10.15;6.00;;;;;;;18.40;63.43;98509.59;5098427;28;20661;-68
2021/08/20 05:47:46;;;;;;;8.18;5.40;;;;;;;18.49;63.53;98509.47;5092439;28;20605;-68
2021/08/20 05:50:11;;;;;;;7.75;5.40;;;;;;;18.56;63.92;98508.88;5094825;28;20035;-68
2021/08/20 05:52:38;;;;;;;9.70;5.30;;;;;;;18.53;63.44;98506.81;5095850;28;20028;-68
2021/08/20 05:55:08;;;;;;;8.57;5.32;;;;;;;18.54;63.50;98508.44;5094929;28;20044;-68
2021/08/20 05:57:34;;;;;;;9.25;4.88;;;;;;;18.52;63.51;98505.19;5094288;28;20043;-68
2021/08/20 05:59:59;;;;;;;10.32;5.32;;;;;;;18.53;63.63;98512.38;5078162;28;20028;-69
2021/08/20 06:02:25;;;;;;;7.15;4.90;;;;;;;18.56;63.65;98511.66;5097050;28;20027;-69
2021/08/20 06:04:50;;;;;;;9.15;5.22;;;;;;;18.66;63.72;98513.97;5099088;28;20032;-68
2021/08/20 06:07:16;;;;;;;7.85;4.82;;;;;;;18.69;63.81;98507.69;5097798;28;20040;-68
2021/08/20 06:09:41;;;;;;;8.52;4.72;;;;;;;18.70;63.57;98522.41;5099308;28;20035;-68
2021/08/20 06:12:07;;;;;;;6.82;4.88;;;;;;;18.69;63.30;98510.47;5093245;28;20479;-68
2021/08/20 06:14:33;;;;;;;13.90;4.75;;;;;;;18.70;63.35;98514.09;5093084;28;20044;-68
2021/08/20 06:16:59;;;;;;;10.38;4.65;;;;;;;18.68;63.47;98505.28;5077762;28;20085;-69
2021/08/20 06:19:26;;;;;;;14.07;5.20;;;;;;;18.72;64.20;98509.78;5095101;28;20032;-68
2021/08/20 06:21:52;;;;;;;9.00;4.55;;;;;;;18.76;63.83;98512.66;5096461;28;20085;-69
2021/08/20 06:24:18;;;;;;;9.43;4.88;;;;;;;18.75;63.86;98506.31;5095813;28;20028;-68
2021/08/20 06:26:46;;;;;;;7.28;5.00;;;;;;;18.75;63.52;98508.25;5098761;28;20084;-68
2021/08/20 06:29:16;;;;;;;7.85;5.00;;;;;;;18.77;63.77;98516.25;5097447;28;20028;-68
2021/08/20 06:31:42;;;;;;;9.48;5.43;;;;;;;18.83;63.60;98518.44;5096035;28;20020;-69
2021/08/20 06:34:08;;;;;;;9.25;4.78;;;;;;;18.85;63.97;98512.56;5095202;28;20078;-68
2021/08/20 06:36:34;;;;;;;7.03;4.47;;;;;;;18.87;63.73;98516.59;5092233;28;20505;-69
2021/08/20 06:38:59;;;;;;;7.70;5.10;;;;;;;18.92;63.87;98514.72;5084182;28;20503;-68
2021/08/20 06:41:24;;;;;;;11.15;5.53;;;;;;;18.94;63.88;98521.56;5093064;28;20430;-69
2021/08/20 06:43:50;;;;;;;11.70;6.88;;;;;;;18.99;63.85;98517.75;5091540;28;20040;-69
2021/08/20 06:46:15;;;;;;;13.52;7.18;;;;;;;19.07;63.55;98514.03;5097111;28;20024;-69
2021/08/20 06:48:41;;;;;;;16.33;8.93;;;;;;;19.18;63.69;98522.69;5074021;28;20084;-69
2021/08/20 06:51:06;;;;;;;21.60;9.85;;;;;;;19.24;63.48;98524.06;5085410;28;20126;-70
2021/08/20 06:53:32;;;;;;;26.75;11.70;;;;;;;19.32;63.42;98522.28;5088072;28;20594;-68
2021/08/20 06:55:58;;;;;;;31.40;14.55;;;;;;;19.36;63.38;98523.19;5072931;28;20398;-68
2021/08/20 06:58:23;;;;;;;28.63;15.15;;;;;;;19.38;63.06;98522.81;5070882;28;20034;-70
2021/08/20 07:00:49;;;;;;;19.58;10.40;;;;;;;19.41;63.32;98524.91;5092139;28;20043;-69
2021/08/20 07:03:17;;;;;;;14.52;8.20;;;;;;;19.43;63.00;98525.38;5090596;28;20027;-69
2021/08/20 07:05:43;;;;;;;14.10;7.63;;;;;;;19.51;63.30;98532.75;5091368;28;20066;-70
2021/08/20 07:08:08;;;;;;;16.20;9.75;;;;;;;19.56;62.93;98531.69;5093362;28;20059;-70
2021/08/20 07:10:34;;;;;;;13.38;8.38;;;;;;;19.61;62.78;98539.75;5091262;28;20036;-70
2021/08/20 07:12:59;;;;;;;13.40;8.00;;;;;;;19.66;62.66;98536.72;5090822;28;20044;-69
2021/08/20 07:15:24;;;;;;;8.95;5.93;;;;;;;19.72;62.45;98528.94;5095220;28;20039;-68
2021/08/20 07:17:50;;;;;;;11.57;5.47;;;;;;;19.76;62.42;98536.22;5089710;28;20470;-68
2021/08/20 07:20:15;;;;;;;13.20;6.65;;;;;;;19.83;62.43;98532.03;5093912;28;20081;-69
2021/08/20 07:22:40;;;;;;;12.35;5.60;;;;;;;19.92;62.32;98535.47;5090413;28;20044;-69
2021/08/20 07:25:07;;;;;;;9.82;5.60;;;;;;;20.01;62.42;98529.72;5072333;28;21306;-68
2021/08/20 07:27:32;;;;;;;9.38;4.80;;;;;;;20.11;62.38;98537.56;5093537;28;20480;-68
2021/08/20 07:29:58;;;;;;;9.32;4.20;;;;;;;20.24;62.23;98532.72;5092703;28;20110;-68
2021/08/20 07:32:23;;;;;;;7.03;4.30;;;;;;;20.30;62.12;98525.72;5090170;28;20032;-68
2021/08/20 07:34:48;;;;;;;7.65;4.28;;;;;;;20.37;61.54;98531.47;5087636;28;20042;-68
2021/08/20 07:37:14;;;;;;;7.05;4.13;;;;;;;20.44;61.34;98532.78;5093129;28;20062;-68
2021/08/20 07:39:39;;;;;;;7.78;3.92;;;;;;;20.53;61.67;98538.97;5093015;28;20066;-68
2021/08/20 07:42:06;;;;;;;8.18;3.90;;;;;;;20.59;61.08;98536.72;5075041;28;20057;-68
2021/08/20 07:44:32;;;;;;;8.02;3.70;;;;;;;20.63;60.98;98532.84;5089562;28;20028;-69
2021/08/20 07:46:59;;;;;;;8.65;3.60;;;;;;;20.67;60.62;98546.88;5077477;28;20028;-69
2021/08/20 07:49:24;;;;;;;7.05;3.50;;;;;;;20.71;60.31;98536.59;5087575;28;20051;-69
2021/08/20 07:51:50;;;;;;;7.78;3.35;;;;;;;20.80;60.56;98540.03;5090054;28;20092;-69
2021/08/20 07:54:15;;;;;;;6.45;3.42;;;;;;;20.86;60.00;98531.41;5097092;28;20028;-68
2021/08/20 07:56:40;;;;;;;7.38;3.72;;;;;;;20.88;59.88;98531.84;5088630;28;20046;-70
2021/08/20 07:59:06;;;;;;;4.55;3.05;;;;;;;20.97;59.69;98536.03;5087527;28;20407;-70
2021/08/20 08:01:32;;;;;;;5.65;3.50;;;;;;;21.02;59.33;98539.72;5088906;28;20047;-69
2021/08/20 08:03:57;;;;;;;7.25;3.30;;;;;;;20.99;59.10;98541.25;5085985;28;20434;-69
2021/08/20 08:06:26;;;;;;;7.53;3.10;;;;;;;21.02;59.38;98536.94;5087683;28;20096;-66
2021/08/20 08:08:52;;;;;;;8.13;3.00;;;;;;;21.07;58.67;98539.44;5095108;28;20028;-67
2021/08/20 08:11:18;;;;;;;6.72;3.20;;;;;;;21.05;58.77;98541.78;5090347;28;20484;-67
2021/08/20 08:13:43;;;;;;;5.25;3.10;;;;;;;21.11;58.76;98537.53;5088090;28;20114;-67
2021/08/20 08:16:09;;;;;;;5.30;3.30;;;;;;;21.21;58.42;98541.72;5075280;28;20032;-66
2021/08/20 08:18:34;;;;;;;5.90;2.90;;;;;;;21.27;58.71;98545.84;5083866;28;20026;-67
2021/08/20 08:21:00;;;;;;;6.28;3.10;;;;;;;21.39;58.24;98544.88;5087245;28;20020;-67
2021/08/20 08:23:26;;;;;;;6.35;3.30;;;;;;;21.49;58.18;98546.28;5087537;28;20028;-67
2021/08/20 08:25:52;;;;;;;7.88;3.10;;;;;;;21.58;58.22;98552.44;5088858;28;20020;-67
2021/08/20 08:28:20;;;;;;;6.70;2.85;;;;;;;21.65;57.75;98547.03;5089126;28;20050;-67
2021/08/20 08:30:48;;;;;;;4.90;2.83;;;;;;;21.75;57.86;98540.03;5087656;28;20163;-67
2021/08/20 08:33:14;;;;;;;5.20;2.93;;;;;;;21.84;57.44;98551.78;5088217;28;20027;-68
2021/08/20 08:35:40;;;;;;;6.57;3.60;;;;;;;21.93;57.53;98547.94;5069688;28;20284;-67
2021/08/20 08:38:10;;;;;;;5.70;3.28;;;;;;;22.04;57.51;98540.56;5089126;28;20042;-68
2021/08/20 08:40:38;;;;;;;4.55;2.63;;;;;;;22.07;56.92;98551.00;5089000;28;20068;-67
2021/08/20 08:43:05;;;;;;;3.58;2.72;;;;;;;22.11;56.16;98551.06;5085553;28;20481;-67
2021/08/20 08:45:31;;;;;;;3.85;2.80;;;;;;;22.15;56.45;98549.94;5087829;28;20043;-65
2021/08/20 08:48:00;;;;;;;3.83;2.30;;;;;;;22.24;56.67;98549.69;5087539;28;20384;-66
2021/08/20 08:50:25;;;;;;;4.50;2.70;;;;;;;22.34;56.59;98556.66;5087228;28;20048;-66
2021/08/20 08:52:51;;;;;;;4.68;2.40;;;;;;;22.44;56.01;98552.44;5088300;28;20430;-67
2021/08/20 08:55:16;;;;;;;7.28;2.90;;;;;;;22.52;55.91;98548.59;5070901;28;20078;-66
2021/08/20 08:57:41;;;;;;;6.80;3.10;;;;;;;22.57;55.42;98548.28;5088017;28;20024;-67
2021/08/20 09:00:08;;;;;;;2.85;2.50;;;;;;;22.63;55.04;98550.75;5086687;28;20072;-66
2021/08/20 09:02:35;;;;;;;4.45;2.50;;;;;;;22.69;55.61;98552.84;5083628;28;20112;-67
2021/08/20 09:05:05;;;;;;;3.33;2.50;;;;;;;22.78;55.43;98554.59;5086659;28;20097;-67
2021/08/20 09:07:36;;;;;;;4.53;2.75;;;;;;;22.84;54.66;98548.28;5087197;28;20032;-68
2021/08/20 09:10:20;;;;;;;4.85;2.55;;;;;;;22.90;54.86;98543.97;5067969;28;20115;-67
2021/08/20 09:13:02;;;;;;;6.53;2.95;;;;;;;22.97;54.54;98548.88;5066406;28;20053;-66
2021/08/20 09:15:30;;;;;;;5.90;3.25;;;;;;;23.02;54.11;98545.75;5069414;28;20028;-67
2021/08/20 09:17:58;;;;;;;8.37;3.10;;;;;;;23.01;53.81;98551.72;5087938;28;20032;-67
2021/08/20 09:20:27;;;;;;;6.05;3.33;;;;;;;23.01;53.39;98549.72;5095861;28;20128;-67
2021/08/20 09:22:56;;;;;;;4.10;2.67;;;;;;;22.96;52.63;98552.06;5088536;28;20077;-67
2021/08/20 09:25:38;;;;;;;4.38;2.65;;;;;;;23.00;52.97;98555.72;5087907;28;20024;-67
2021/08/20 09:28:26;;;;;;;4.35;2.47;;;;;;;23.04;53.31;98553.75;5089155;28;20024;-67
2021/08/20 09:30:55;;;;;;;3.25;2.53;;;;;;;23.09;53.08;98545.03;5086179;28;20023;-67
2021/08/20 09:33:27;;;;;;;3.97;2.85;;;;;;;23.11;53.01;98551.03;5087040;28;20028;-68
2021/08/20 09:35:56;;;;;;;4.93;2.65;;;;;;;23.24;53.37;98556.44;5070144;28;20024;-68
2021/08/20 09:38:23;;;;;;;5.43;3.08;;;;;;;23.34;52.58;98553.00;5092859;28;20064;-68
2021/08/20 09:40:52;;;;;;;4.40;3.00;;;;;;;23.46;53.03;98546.34;5090589;28;20032;-69
2021/08/20 09:43:20;;;;;;;8.77;3.50;;;;;;;23.55;51.12;98551.63;5092126;28;20115;-68
2021/08/20 09:45:57;;;;;;;4.13;2.88;;;;;;;23.50;52.15;98544.38;5090203;28;20032;-67
2021/08/20 09:48:38;;;;;;;5.47;2.60;;;;;;;23.60;52.09;98549.31;5092859;28;20479;-68
2021/08/20 09:51:03;;;;;;;5.43;2.28;;;;;;;23.63;51.48;98544.94;5092298;28;20028;-68
2021/08/20 09:53:29;;;;;;;5.95;2.60;;;;;;;23.68;51.39;98543.78;5091678;28;20064;-69
2021/08/20 09:55:55;;;;;;;5.88;3.05;;;;;;;23.71;51.15;98554.22;5090248;28;20384;-69
2021/08/20 09:58:20;;;;;;;6.78;2.80;;;;;;;23.75;51.05;98549.47;5091304;28;20036;-69
2021/08/20 10:00:48;;;;;;;7.13;3.33;;;;;;;23.74;50.47;98545.88;5091590;28;20036;-68
2021/08/20 10:03:17;;;;;;;6.53;2.95;;;;;;;23.73;50.53;98544.25;5103892;28;20028;-68
2021/08/20 10:05:44;;;;;;;;;;;;;;;23.76;50.90;98551.06;5093575;28;20057;-69
2021/08/20 10:08:12;;;;;;;10.35;3.90;;;;;;;23.76;50.71;98546.28;5090229;28;20564;-68
2021/08/20 10:10:44;;;;;;;5.15;3.00;;;;;;;23.77;50.19;98550.69;5091619;28;20020;-67
2021/08/20 10:13:14;;;;;;;4.00;2.80;;;;;;;23.72;50.23;98542.66;5090660;28;20110;-68
2021/08/20 10:15:39;;;;;;;5.75;2.80;;;;;;;23.66;50.65;98537.75;5087832;28;20109;-68
2021/08/20 10:18:06;;;;;;;6.88;3.10;;;;;;;23.73;50.66;98546.22;5086986;28;20067;-67
2021/08/20 10:20:34;;;;;;;4.28;2.80;;;;;;;23.81;51.11;98552.75;5091029;28;20112;-68
2021/08/20 10:23:00;;;;;;;6.32;2.55;;;;;;;23.80;50.56;98551.91;5071723;28;20046;-69
2021/08/20 10:25:27;;;;;;;4.30;3.00;;;;;;;23.85;50.86;98547.97;5081913;28;20020;-68
2021/08/20 10:27:54;;;;;;;6.53;3.58;;;;;;;23.86;50.82;98550.38;5092073;28;20030;-68
2021/08/20 10:30:19;;;;;;;3.45;2.55;;;;;;;23.82;50.72;98545.94;5083739;28;20085;-69
2021/08/20 10:33:01;;;;;;;3.92;2.92;;;;;;;23.82;50.50;98551.56;5087647;28;20024;-68
2021/08/20 10:35:53;;;;;;;5.95;2.78;;;;;;;23.83;50.41;98547.56;5084282;28;20024;-69
2021/08/20 10:38:47;;;;;;;3.80;2.50;;;;;;;23.79;50.74;98542.72;5090385;28;20032;-67
2021/08/20 10:41:20;;;;;;;5.55;2.60;;;;;;;23.78;50.08;98545.91;5090788;28;20024;-67
2021/08/20 10:43:51;;;;;;;4.95;2.92;;;;;;;23.80;50.51;98535.13;5089768;28;20039;-68
2021/08/20 10:46:35;;;;;;;3.33;2.38;;;;;;;23.84;50.33;98538.75;5088146;28;20082;-67
2021/08/20 10:49:10;;;;;;;3.42;2.75;;;;;;;23.86;50.33;98524.38;5091393;28;20368;-68
2021/08/20 10:51:48;;;;;;;6.45;3.10;;;;;;;23.86;50.58;98527.97;5091731;28;20024;-68
2021/08/20 10:54:16;;;;;;;4.75;2.80;;;;;;;23.90;50.37;98533.59;5090122;28;20032;-69
2021/08/20 10:56:41;;;;;;;3.90;2.75;;;;;;;23.94;50.45;98534.47;5091458;28;20053;-68
2021/08/20 10:59:07;;;;;;;3.58;2.58;;;;;;;23.93;50.20;98532.84;5091466;28;20472;-69
2021/08/20 11:01:32;;;;;;;6.20;2.90;;;;;;;23.96;50.49;98537.69;5089777;28;20016;-69
2021/08/20 11:03:59;;;;;;;3.53;2.85;;;;;;;24.01;50.86;98533.78;5089453;28;20084;-67
2021/08/20 11:06:55;;;;;;;4.07;2.85;;;;;;;24.11;50.91;98541.44;5089637;28;20036;-67
2021/08/20 11:09:32;;;;;;;8.57;3.60;;;;;;;24.17;51.27;98533.53;5088876;28;20496;-68
2021/08/20 11:11:59;;;;;;;6.25;3.55;;;;;;;24.18;50.78;98541.53;5090727;28;20027;-68
2021/08/20 11:14:30;;;;;;;3.85;2.72;;;;;;;24.15;50.58;98538.69;5088546;28;20500;-67
2021/08/20 11:16:55;;;;;;;5.82;3.20;;;;;;;24.18;50.53;98532.31;5089672;28;20020;-68
2021/08/20 11:19:47;;;;;;;5.72;3.00;;;;;;;24.21;49.99;98537.94;5089567;28;20039;-68
2021/08/20 11:22:21;;;;;;;3.35;2.70;;;;;;;24.23;50.04;98534.78;5090568;28;20119;-68
2021/08/20 11:25:10;;;;;;;3.53;2.80;;;;;;;24.22;50.26;98536.75;5090758;28;20032;-67
2021/08/20 11:27:37;;;;;;;4.35;3.33;;;;;;;24.30;50.25;98537.63;5087693;28;20032;-67